createdAt,value
2023-03-22T00:01:46.199Z,3.57
2023-03-22T00:04:12.805Z,3.80
2023-03-22T00:06:39.743Z,3.10
2023-03-22T00:09:06.234Z,3.63
2023-03-22T00:11:32.645Z,4.10
2023-03-22T00:13:59.626Z,2.87
2023-03-22T00:16:26.227Z,3.20
2023-03-22T00:18:52.793Z,2.80
2023-03-22T00:21:19.251Z,2.57
2023-03-22T00:23:46.218Z,2.87
2023-03-22T00:26:13.626Z,2.53
2023-03-22T00:28:40.690Z,2.80
2023-03-22T00:31:07.949Z,4.63
2023-03-22T00:33:34.903Z,2.60
2023-03-22T00:36:10.271Z,2.50
2023-03-22T00:38:43.007Z,3.13
2023-03-22T00:41:18.514Z,3.30
2023-03-22T00:43:46.466Z,2.80
2023-03-22T00:46:14.485Z,2.33
2023-03-22T00:48:41.026Z,3.27
2023-03-22T00:51:08.361Z,2.37
2023-03-22T00:53:37.438Z,3.77
2023-03-22T00:56:05.556Z,3.00
2023-03-22T00:58:32.459Z,2.93
2023-03-22T01:00:58.904Z,3.33
2023-03-22T01:03:25.511Z,4.43
2023-03-22T01:05:55.574Z,2.27
2023-03-22T01:08:23.567Z,3.03
2023-03-22T01:10:50.536Z,3.67
2023-03-22T01:13:18.030Z,3.90
2023-03-22T01:15:44.858Z,4.17
2023-03-22T01:18:11.260Z,3.53
2023-03-22T01:20:37.893Z,3.60
2023-03-22T01:23:04.697Z,3.53
2023-03-22T01:25:31.474Z,3.30
2023-03-22T01:27:57.885Z,2.00
2023-03-22T01:30:24.450Z,2.03
2023-03-22T01:32:51.235Z,1.90
2023-03-22T01:35:17.741Z,1.90
2023-03-22T01:37:44.403Z,3.37
2023-03-22T01:40:12.933Z,2.67
2023-03-22T01:42:39.336Z,2.33
2023-03-22T01:45:14.654Z,3.13
2023-03-22T01:47:51.323Z,3.53
2023-03-22T01:50:18.329Z,2.97
2023-03-22T01:52:44.914Z,1.87
2023-03-22T01:55:12.609Z,4.17
2023-03-22T01:57:42.435Z,2.83
2023-03-22T02:00:15.821Z,1.93
2023-03-22T02:02:44.165Z,1.70
2023-03-22T02:05:12.183Z,2.60
2023-03-22T02:07:40.797Z,0.93
2023-03-22T02:10:16.465Z,1.60
2023-03-22T02:13:09.412Z,2.03
2023-03-22T02:15:43.439Z,1.13
2023-03-22T02:18:40.809Z,2.90
2023-03-22T02:21:25.624Z,2.43
2023-03-22T02:24:29.455Z,1.57
2023-03-22T02:27:25.615Z,2.23
2023-03-22T02:30:09.157Z,3.90
2023-03-22T02:32:50.409Z,2.13
2023-03-22T02:35:31.276Z,4.10
2023-03-22T02:38:22.440Z,1.73
2023-03-22T02:41:27.496Z,3.27
2023-03-22T02:43:59.537Z,5.50
2023-03-22T02:46:36.290Z,3.77
2023-03-22T02:49:36.215Z,4.00
2023-03-22T02:52:22.591Z,4.13
2023-03-22T02:55:05.971Z,2.37
2023-03-22T02:58:02.199Z,3.23
2023-03-22T03:00:30.868Z,2.40
2023-03-22T03:03:11.161Z,3.73
2023-03-22T03:05:45.436Z,2.63
2023-03-22T03:08:14.189Z,1.37
2023-03-22T03:10:42.220Z,3.60
2023-03-22T03:13:12.734Z,2.40
2023-03-22T03:15:43.836Z,2.07
2023-03-22T03:18:26.354Z,2.30
2023-03-22T03:21:02.311Z,1.67
2023-03-22T03:23:37.697Z,1.30
2023-03-22T03:26:16.272Z,1.30
2023-03-22T03:28:58.093Z,1.47
2023-03-22T03:31:43.566Z,1.63
2023-03-22T03:34:30.588Z,2.23
2023-03-22T03:37:04.909Z,1.03
2023-03-22T03:39:34.819Z,2.43
2023-03-22T03:42:03.515Z,1.07
2023-03-22T03:44:31.595Z,1.70
2023-03-22T03:46:59.000Z,0.50
2023-03-22T03:49:27.076Z,1.23
2023-03-22T03:51:55.626Z,1.27
2023-03-22T03:54:23.090Z,1.33
2023-03-22T03:56:49.522Z,1.73
2023-03-22T03:59:17.340Z,1.60
2023-03-22T04:01:49.932Z,1.53
2023-03-22T04:04:26.802Z,1.57
2023-03-22T04:06:59.209Z,1.80
2023-03-22T04:09:28.212Z,1.70
2023-03-22T04:11:56.046Z,0.27
2023-03-22T04:14:23.109Z,1.10
2023-03-22T04:16:50.069Z,1.30
2023-03-22T04:19:17.163Z,0.90
2023-03-22T04:21:43.671Z,1.47
2023-03-22T04:24:10.471Z,1.63
2023-03-22T04:26:37.034Z,1.27
2023-03-22T04:29:03.944Z,1.57
2023-03-22T04:31:31.836Z,1.53
2023-03-22T04:34:00.356Z,1.63
2023-03-22T04:36:31.054Z,1.40
2023-03-22T04:38:58.067Z,1.13
2023-03-22T04:41:24.562Z,1.47
2023-03-22T04:43:51.603Z,2.17
2023-03-22T04:46:18.046Z,1.07
2023-03-22T04:48:44.629Z,0.93
2023-03-22T04:51:11.437Z,1.40
2023-03-22T04:53:40.906Z,1.80
2023-03-22T04:56:10.518Z,1.40
2023-03-22T04:58:40.084Z,1.47
2023-03-22T05:01:07.447Z,1.60
2023-03-22T05:03:36.596Z,1.63
2023-03-22T05:06:06.533Z,0.60
2023-03-22T05:08:33.807Z,0.70
2023-03-22T05:11:11.644Z,1.80
2023-03-22T05:13:38.275Z,1.53
2023-03-22T05:16:06.400Z,1.13
2023-03-22T05:18:33.332Z,1.10
2023-03-22T05:21:00.923Z,1.30
2023-03-22T05:23:27.485Z,0.70
2023-03-22T05:25:54.176Z,1.00
2023-03-22T05:28:21.391Z,0.70
2023-03-22T05:30:49.238Z,1.37
2023-03-22T05:33:16.958Z,1.40
2023-03-22T05:35:43.745Z,1.70
2023-03-22T05:38:10.706Z,1.70
2023-03-22T05:40:37.635Z,2.23
2023-03-22T05:43:04.521Z,1.37
2023-03-22T05:45:32.420Z,2.20
2023-03-22T05:47:58.954Z,2.03
2023-03-22T05:50:25.343Z,1.33
2023-03-22T05:52:52.152Z,1.90
2023-03-22T05:55:19.301Z,1.43
2023-03-22T05:57:46.767Z,2.37
2023-03-22T06:00:16.175Z,1.73
2023-03-22T06:02:43.609Z,2.47
2023-03-22T06:05:12.388Z,0.80
2023-03-22T06:07:39.880Z,3.40
2023-03-22T06:10:07.816Z,1.33
2023-03-22T06:12:34.874Z,2.17
2023-03-22T06:15:01.293Z,1.37
2023-03-22T06:17:28.119Z,1.80
2023-03-22T06:19:54.812Z,2.20
2023-03-22T06:22:21.930Z,3.37
2023-03-22T06:24:49.619Z,2.80
2023-03-22T06:27:16.294Z,1.93
2023-03-22T06:29:42.674Z,2.30
2023-03-22T06:32:09.205Z,2.37
2023-03-22T06:34:35.737Z,2.80
2023-03-22T06:37:02.197Z,2.87
2023-03-22T06:39:28.623Z,1.07
2023-03-22T06:41:55.260Z,2.27
2023-03-22T06:44:22.527Z,1.00
2023-03-22T06:46:48.973Z,2.10
2023-03-22T06:49:16.712Z,1.40
2023-03-22T06:51:43.151Z,2.53
2023-03-22T06:54:09.614Z,2.40
2023-03-22T06:56:35.970Z,1.90
2023-03-22T06:59:02.378Z,2.77
2023-03-22T07:01:28.716Z,1.17
2023-03-22T07:03:55.166Z,1.77
2023-03-22T07:06:21.566Z,1.30
2023-03-22T07:08:49.115Z,3.07
2023-03-22T07:11:16.518Z,1.80
2023-03-22T07:13:42.967Z,3.00
2023-03-22T07:16:09.748Z,3.47
2023-03-22T07:18:36.687Z,1.90
2023-03-22T07:21:03.697Z,2.40
2023-03-22T07:23:30.575Z,2.00
2023-03-22T07:25:59.144Z,2.70
2023-03-22T07:28:25.711Z,1.70
2023-03-22T07:31:07.230Z,2.70
2023-03-22T07:33:33.599Z,2.60
2023-03-22T07:36:00.005Z,2.17
2023-03-22T07:38:26.512Z,3.30
2023-03-22T07:40:54.879Z,3.90
2023-03-22T07:43:21.923Z,2.70
2023-03-22T07:45:49.886Z,3.37
2023-03-22T07:48:17.325Z,3.10
2023-03-22T07:50:44.235Z,3.10
2023-03-22T07:53:11.330Z,3.50
2023-03-22T07:55:38.116Z,2.57
2023-03-22T07:58:05.742Z,1.57
2023-03-22T08:00:32.434Z,2.30
2023-03-22T08:02:58.981Z,3.90
2023-03-22T08:05:25.710Z,2.50
2023-03-22T08:07:52.476Z,2.80
2023-03-22T08:10:19.413Z,2.67
2023-03-22T08:12:46.202Z,3.07
2023-03-22T08:15:12.902Z,3.73
2023-03-22T08:17:39.277Z,2.40
2023-03-22T08:20:09.183Z,3.23
2023-03-22T08:22:36.411Z,2.67
2023-03-22T08:25:04.685Z,2.70
2023-03-22T08:27:31.570Z,2.27
2023-03-22T08:29:58.251Z,2.03
2023-03-22T08:32:24.793Z,2.47
2023-03-22T08:34:51.262Z,2.20
2023-03-22T08:37:20.242Z,3.27
2023-03-22T08:39:47.095Z,2.10
2023-03-22T08:42:13.567Z,1.60
2023-03-22T08:44:40.158Z,1.93
2023-03-22T08:47:08.607Z,2.73
2023-03-22T08:49:35.599Z,1.80
2023-03-22T08:52:02.091Z,1.47
2023-03-22T08:54:33.678Z,2.40
2023-03-22T08:57:00.651Z,1.70
2023-03-22T08:59:27.819Z,1.30
2023-03-22T09:01:54.336Z,2.20
2023-03-22T09:04:20.780Z,2.10
2023-03-22T09:06:47.286Z,2.00
2023-03-22T09:09:13.763Z,1.23
2023-03-22T09:11:42.425Z,2.60
2023-03-22T09:14:10.122Z,0.97
2023-03-22T09:16:36.876Z,0.90
2023-03-22T09:19:03.859Z,1.13
2023-03-22T09:21:30.537Z,1.07
2023-03-22T09:23:56.948Z,0.70
2023-03-22T09:26:24.124Z,1.00
2023-03-22T09:28:50.916Z,0.70
2023-03-22T09:31:20.337Z,0.77
2023-03-22T09:33:47.025Z,1.70
2023-03-22T09:36:13.902Z,0.97
2023-03-22T09:38:41.984Z,0.70
2023-03-22T09:41:36.788Z,1.00
2023-03-22T09:44:07.385Z,0.73
2023-03-22T09:46:37.192Z,2.03
2023-03-22T09:49:10.832Z,0.50
2023-03-22T09:51:54.421Z,0.67
2023-03-22T09:54:41.152Z,0.53
2023-03-22T09:57:20.410Z,0.60
2023-03-22T10:00:00.838Z,1.07
2023-03-22T10:02:45.764Z,0.80
2023-03-22T10:05:33.718Z,0.50
2023-03-22T10:08:12.769Z,0.40
2023-03-22T10:10:43.031Z,0.90
2023-03-22T10:13:27.209Z,0.70
2023-03-22T10:16:06.529Z,0.60
2023-03-22T10:18:37.107Z,0.90
2023-03-22T10:21:05.083Z,0.83
2023-03-22T10:23:44.135Z,0.30
2023-03-22T10:26:19.973Z,0.60
2023-03-22T10:28:53.548Z,0.50
2023-03-22T10:31:21.225Z,0.73
2023-03-22T10:34:03.520Z,1.10
2023-03-22T10:36:34.742Z,0.40
2023-03-22T10:39:08.983Z,0.47
2023-03-22T10:41:36.421Z,0.60
2023-03-22T10:44:05.370Z,0.40
2023-03-22T10:46:38.388Z,0.40
2023-03-22T10:49:07.202Z,0.67
2023-03-22T10:51:51.584Z,0.50
2023-03-22T10:54:21.178Z,0.77
2023-03-22T10:56:47.799Z,0.47
2023-03-22T10:59:49.567Z,0.70
2023-03-22T11:02:22.005Z,0.50
2023-03-22T11:04:54.603Z,0.40
2023-03-22T11:07:42.641Z,0.40
2023-03-22T11:10:09.033Z,0.60
2023-03-22T11:12:39.949Z,0.30
2023-03-22T11:15:18.127Z,0.40
2023-03-22T11:17:44.476Z,0.80
2023-03-22T11:20:17.043Z,0.80
2023-03-22T11:22:46.119Z,0.70
2023-03-22T11:25:18.755Z,0.40
2023-03-22T11:28:09.374Z,0.63
2023-03-22T11:30:37.147Z,0.50
2023-03-22T11:33:16.857Z,0.40
2023-03-22T11:35:53.673Z,0.80
2023-03-22T11:38:29.803Z,0.40
2023-03-22T11:41:02.322Z,0.30
2023-03-22T11:43:39.219Z,0.40
2023-03-22T11:46:08.481Z,0.70
2023-03-22T11:48:36.708Z,0.57
2023-03-22T11:51:12.439Z,0.40
2023-03-22T11:53:43.011Z,0.60
2023-03-22T11:56:12.377Z,0.60
2023-03-22T11:58:48.567Z,0.30
2023-03-22T12:01:40.772Z,0.40
2023-03-22T12:04:17.631Z,0.50
2023-03-22T12:06:44.296Z,0.70
2023-03-22T12:09:25.544Z,0.60
2023-03-22T12:11:55.186Z,0.67
2023-03-22T12:14:40.182Z,0.53
2023-03-22T12:17:38.561Z,0.43
2023-03-22T12:20:27.552Z,0.47
2023-03-22T12:22:55.150Z,0.70
2023-03-22T12:25:26.971Z,0.37
2023-03-22T12:28:01.113Z,0.40
2023-03-22T12:30:31.632Z,0.50
2023-03-22T12:33:06.585Z,0.30
2023-03-22T12:35:36.262Z,0.90
2023-03-22T12:38:19.074Z,0.50
2023-03-22T12:40:47.592Z,0.50
2023-03-22T12:43:30.983Z,0.30
2023-03-22T12:46:02.240Z,0.60
2023-03-22T12:48:34.911Z,1.40
2023-03-22T12:51:07.450Z,0.83
2023-03-22T12:53:42.310Z,0.57
2023-03-22T12:56:12.935Z,0.30
2023-03-22T12:58:39.420Z,0.67
2023-03-22T13:01:45.121Z,0.67
2023-03-22T13:04:43.161Z,0.53
2023-03-22T13:07:37.204Z,0.60
2023-03-22T13:10:36.282Z,1.23
2023-03-22T13:13:23.040Z,0.40
2023-03-22T13:16:10.925Z,0.60
2023-03-22T13:18:40.311Z,0.40
2023-03-22T13:21:19.033Z,1.27
2023-03-22T13:24:10.415Z,0.43
2023-03-22T13:26:53.305Z,0.50
2023-03-22T13:29:38.400Z,0.30
2023-03-22T13:32:20.933Z,0.63
2023-03-22T13:34:52.110Z,0.53
2023-03-22T13:37:37.205Z,0.57
2023-03-22T13:40:31.800Z,0.40
2023-03-22T13:43:19.829Z,0.30
2023-03-22T13:46:13.091Z,0.50
2023-03-22T13:48:48.397Z,0.40
2023-03-22T13:51:25.599Z,0.40
2023-03-22T13:54:06.691Z,0.40
2023-03-22T13:56:42.211Z,0.40
2023-03-22T13:59:13.476Z,0.20
2023-03-22T14:01:50.174Z,0.37
2023-03-22T14:04:22.692Z,0.50
2023-03-22T14:06:55.043Z,1.07
2023-03-22T14:09:44.555Z,0.47
2023-03-22T14:12:28.353Z,0.30
2023-03-22T14:15:05.028Z,0.37
2023-03-22T14:17:46.489Z,0.30
2023-03-22T14:20:19.138Z,0.50
